Wedron, Illinois
Current Conditions -  °F | °C
As of 2:15 PM on Sunday 25 Jan 2015 (Local Time) from KC09 Reporting Station
Light Snow Light Snow  
Wind Chill: 22°   Ceiling: 1100
Heat Index: 31°   Visibility: 1.5mi
Dew Point: 29°   Wind: 12mph
Humidity: 94%   Direction: 30°NNE
Pressure: 29.78"   Gusts: 20mph
Location:  41.44°N, 88.77°W
Report Text: KC09 252015Z AUTO 03010G17KT 1 1/2SM -SN OVC011 M01/M01 A2978 RMK AO2 T10061015
Loading
Personal Weather Stations






























Interactive Weather Map New forecast layout! Learn more

10-Day Weather Forecast

Advertisements
Track Severe Weather on mobile